Terminal Aerodrome Forecast
Issued by NWS Burlington, VT

Home | Current Version | Previous Version | Text Only | Print | Product List | Glossary On
Versions: 1 2 3 4 5 6 7 8 9 10 11 12 13 14 15 16 17 18
000
FTUS41 KBTV 071729
TAFBTV
TAF
KBTV 071729Z 0718/0818 19010KT P6SM OVC035
     FM072100 24006KT P6SM BKN045
     FM081400 20007KT P6SM VCSH OVC035
     FM081600 21007KT P6SM VCSH OVC025=

USA.gov is the U.S. government's official web portal to all federal, state and local government web resources and services.